Masjed-Soleyman, Iran

6:26 PM IRST on October 22, 2014 (GMT +0330)
Ahwaz | Change Station
CLOSE
Current Station
Airport
Location: Ahwaz,
Elevation: 72 ft
Nearby Weather Stations

Elev 72 ft 31.33 °N, 48.67 °E | Updated 26 minutes ago

Clear
Clear
75 °F
Feels Like 75 °F
N
5
Wind Variable Wind from NW

Today
High -- | Low -- °F
--% Chance of Precip.
Yesterday
High -- | Low -- °F
Precip. -- in
6:21 AM 5:33 PM
Waning Crescent, 2% visible
Pressure 30.01 in
Visibility -9999.0 miles
Clouds
Dew Point 50 °F
Humidity 41%
Rainfall 0.00 in
Snow Depth Not available.
UV Not available.
Pollen Not available.
Air Quality Not available.
Flu Activity Not available.
METAR OIAW 221430Z 31004KT CAVOK 24/10 Q1016

More Conditions Fewer Conditions

Pressure 30.01 in
Visibility -9999.0 miles
Clouds
Dew Point 50 °F
Humidity 41%
Rainfall 0.00 in
Snow Depth Not available.
UV Not available.
Pollen Not available.
Air Quality Not available.
Flu Activity Not available.
METAR OIAW 221430Z 31004KT CAVOK 24/10 Q1016

More Conditions Fewer Conditions

10-Day Weather Forecast

Almanac

Astronomy

Oct. 22, 2014 Rise Set
Actual Time 6:21 AM IRST 5:33 PM IRST
Civil Twilight 5:56 AM IRST 5:57 PM IRST
Nautical Twilight 5:27 AM IRST 6:26 PM IRST
Astronomical Twilight 4:59 AM IRST 6:54 PM IRST
Moon 4:46 AM IRST 4:42 PM IRST
Length of Visible Light 12h 01m
Length of Day
11h 11m
Tomorrow will be 1m 49s shorter.
Waning Crescent, 2% of the Moon is Illuminated
Today
Waning Crescent
Oct 23
New
Oct 30
First Quarter
Nov 6
Full
Nov 14
Last Quarter

Today's Extremes

Country Highs Country Lows

Community

WunderPhotos

Upload Photos

1,763,935 photos uploaded!

WunderBlogs® & News

Nearby

Snow Depth

Not available.

Earthquake Activity

City Distance Mag. Time & Date
No recent earthquake activity has been reported nearby.
Minimum magnitude displayed is 2.5.

Coastal Water Temperatures

Place Temperature
No Stations Reporting

Nearby Weather Stations